Time;durP1;ratioP1;P1;durP2;ratioP2;P2;SDS_P1;SDS_P2;PMS_P1;PMS_P2;Temp;Humidity;BMP_temperature;BMP_pressure;BME280_temperature;BME280_humidity;BME280_pressure;Samples;Min_cycle;Max_cycle;Signal;HPM_P1;HPM_P2
2021/04/19 00:01:21;;;;;;;10.37;8.17;;;;;;;;;;5051623;28;20614;-77
2021/04/19 00:03:47;;;;;;;9.73;8.37;;;;;;;;;;5051759;28;20212;-76
2021/04/19 00:06:13;;;;;;;11.90;8.40;;;;;;;;;;5052768;28;20712;-77
2021/04/19 00:08:39;;;;;;;9.93;8.17;;;;;;;;;;5052745;28;20567;-76
2021/04/19 00:11:05;;;;;;;10.40;9.10;;;;;;;;;;5052793;28;20589;-76
2021/04/19 00:13:31;;;;;;;10.13;8.97;;;;;;;;;;5052150;28;20262;-75
2021/04/19 00:15:57;;;;;;;10.60;8.83;;;;;;;;;;5052706;28;20179;-75
2021/04/19 00:18:23;;;;;;;10.37;9.27;;;;;;;;;;5052198;28;20211;-76
2021/04/19 00:20:49;;;;;;;11.50;9.77;;;;;;;;;;5052485;28;20234;-77
2021/04/19 00:23:15;;;;;;;10.83;9.30;;;;;;;;;;5034951;28;20216;-76
2021/04/19 00:25:41;;;;;;;10.13;9.03;;;;;;;;;;5051287;28;20188;-77
2021/04/19 00:28:06;;;;;;;11.23;9.40;;;;;;;;;;5034701;28;20655;-77
2021/04/19 00:30:32;;;;;;;10.77;9.17;;;;;;;;;;5050771;28;20180;-77
2021/04/19 00:32:58;;;;;;;12.47;8.80;;;;;;;;;;5052191;28;20180;-77
2021/04/19 00:35:24;;;;;;;11.37;9.80;;;;;;;;;;5052396;28;20182;-77
2021/04/19 00:37:50;;;;;;;12.97;9.90;;;;;;;;;;5051136;28;20194;-77
2021/04/19 00:40:17;;;;;;;10.70;9.33;;;;;;;;;;5051056;28;20196;-77
2021/04/19 00:42:43;;;;;;;11.33;9.33;;;;;;;;;;5052095;28;20212;-78
2021/04/19 00:45:10;;;;;;;12.07;9.80;;;;;;;;;;5034314;28;20344;-78
2021/04/19 00:47:36;;;;;;;12.07;9.73;;;;;;;;;;5050706;28;20177;-78
2021/04/19 00:50:03;;;;;;;12.07;10.00;;;;;;;;;;5051123;28;20206;-75
2021/04/19 00:52:29;;;;;;;12.37;11.03;;;;;;;;;;5051702;28;20176;-76
2021/04/19 00:54:55;;;;;;;14.77;12.10;;;;;;;;;;5052182;28;20183;-77
2021/04/19 00:57:21;;;;;;;15.47;12.97;;;;;;;;;;5034146;28;20189;-76
2021/04/19 00:59:47;;;;;;;15.37;13.20;;;;;;;;;;5034143;28;20337;-76
2021/04/19 01:02:13;;;;;;;15.60;13.70;;;;;;;;;;5050278;28;20305;-77
2021/04/19 01:04:38;;;;;;;18.23;15.80;;;;;;;;;;5051867;28;20178;-77
2021/04/19 01:07:04;;;;;;;19.47;15.13;;;;;;;;;;5033989;28;20235;-75
2021/04/19 01:09:30;;;;;;;19.17;16.63;;;;;;;;;;5050588;28;20230;-76
2021/04/19 01:11:56;;;;;;;22.00;17.00;;;;;;;;;;5050448;28;20188;-76
2021/04/19 01:14:22;;;;;;;20.07;16.63;;;;;;;;;;5051866;28;20206;-75
2021/04/19 01:16:48;;;;;;;22.63;17.87;;;;;;;;;;5050346;28;20220;-74
2021/04/19 01:19:14;;;;;;;20.70;17.50;;;;;;;;;;5050388;28;20217;-74
2021/04/19 01:21:40;;;;;;;24.87;18.07;;;;;;;;;;5050601;28;20839;-77
2021/04/19 01:24:06;;;;;;;24.70;20.57;;;;;;;;;;5050849;28;20590;-77
2021/04/19 01:26:32;;;;;;;28.23;19.23;;;;;;;;;;5051745;28;20180;-76
2021/04/19 01:28:58;;;;;;;23.80;19.73;;;;;;;;;;5051163;28;20281;-76
2021/04/19 01:31:24;;;;;;;23.57;19.67;;;;;;;;;;5051418;28;20179;-76
2021/04/19 01:33:50;;;;;;;26.03;19.63;;;;;;;;;;5051640;28;20174;-76
2021/04/19 01:36:16;;;;;;;25.73;19.23;;;;;;;;;;5051740;28;20206;-75
2021/04/19 01:38:42;;;;;;;23.53;18.90;;;;;;;;;;5050075;28;20190;-76
2021/04/19 01:41:08;;;;;;;24.10;19.27;;;;;;;;;;5033606;28;20175;-76
2021/04/19 01:43:34;;;;;;;25.17;18.60;;;;;;;;;;5051317;28;20264;-75
2021/04/19 01:46:00;;;;;;;22.37;17.50;;;;;;;;;;5051453;28;20261;-75
2021/04/19 01:48:26;;;;;;;21.90;17.83;;;;;;;;;;5051391;28;20588;-76
2021/04/19 01:50:53;;;;;;;22.13;17.97;;;;;;;;;;5033588;28;20182;-75
2021/04/19 01:53:19;;;;;;;23.00;18.63;;;;;;;;;;5051345;28;20182;-76
2021/04/19 01:55:45;;;;;;;21.87;17.50;;;;;;;;;;5050275;28;20214;-76
2021/04/19 01:58:16;;;;;;;21.20;17.27;;;;;;;;;;5051340;28;20183;-76
2021/04/19 02:00:43;;;;;;;17.77;15.30;;;;;;;;;;5050007;28;20182;-76
2021/04/19 02:03:12;;;;;;;20.50;16.30;;;;;;;;;;5033655;28;20210;-76
2021/04/19 02:05:44;;;;;;;20.50;16.17;;;;;;;;;;5049757;28;20198;-76
2021/04/19 02:08:20;;;;;;;20.40;15.40;;;;;;;;;;5051165;28;20193;-75
2021/04/19 02:11:04;;;;;;;16.40;14.57;;;;;;;;;;5049772;28;20209;-74
2021/04/19 02:13:39;;;;;;;20.50;15.40;;;;;;;;;;5051247;28;20177;-76
2021/04/19 02:16:17;;;;;;;19.13;16.30;;;;;;;;;;5050080;28;20189;-76
2021/04/19 02:18:43;;;;;;;20.83;15.87;;;;;;;;;;5051317;28;20206;-76
2021/04/19 02:21:10;;;;;;;20.47;16.87;;;;;;;;;;5051001;28;20185;-76
2021/04/19 02:23:37;;;;;;;20.97;17.53;;;;;;;;;;5033256;28;20262;-75
2021/04/19 02:26:05;;;;;;;21.90;17.43;;;;;;;;;;5049895;28;20170;-75
2021/04/19 02:28:39;;;;;;;23.50;17.53;;;;;;;;;;5049905;28;20194;-76
2021/04/19 02:31:06;;;;;;;20.73;16.87;;;;;;;;;;5033176;28;20210;-75
2021/04/19 02:33:33;;;;;;;21.33;18.13;;;;;;;;;;5033142;28;20178;-74
2021/04/19 02:35:59;;;;;;;22.10;17.83;;;;;;;;;;5052530;28;20265;-76
2021/04/19 02:38:25;;;;;;;22.40;18.73;;;;;;;;;;5035630;28;20248;-76
2021/04/19 02:40:52;;;;;;;22.07;19.47;;;;;;;;;;5053317;28;20716;-76
2021/04/19 02:43:19;;;;;;;22.00;18.67;;;;;;;;;;5036393;28;20243;-75
2021/04/19 02:45:45;;;;;;;23.43;19.03;;;;;;;;;;5053432;28;20588;-75
2021/04/19 02:48:11;;;;;;;24.97;19.77;;;;;;;;;;5053029;28;20245;-75
2021/04/19 02:50:37;;;;;;;24.53;19.80;;;;;;;;;;5036629;28;20180;-75
2021/04/19 02:53:03;;;;;;;24.50;20.20;;;;;;;;;;5052966;28;20651;-75
2021/04/19 02:55:29;;;;;;;23.30;19.40;;;;;;;;;;5054389;28;20588;-76
2021/04/19 02:58:03;;;;;;;24.37;20.60;;;;;;;;;;5052595;28;20183;-75
2021/04/19 03:00:33;;;;;;;25.03;20.13;;;;;;;;;;5053222;28;20175;-74
2021/04/19 03:03:00;;;;;;;23.43;20.87;;;;;;;;;;5035945;28;20205;-75
2021/04/19 03:05:26;;;;;;;25.47;20.23;;;;;;;;;;5053013;28;20178;-76
2021/04/19 03:08:02;;;;;;;22.07;19.73;;;;;;;;;;5052775;28;20179;-75
2021/04/19 03:10:29;;;;;;;25.47;21.07;;;;;;;;;;5052776;28;20179;-76
2021/04/19 03:12:56;;;;;;;26.77;21.00;;;;;;;;;;5052434;28;20258;-75
2021/04/19 03:15:26;;;;;;;25.77;20.67;;;;;;;;;;5052687;28;20187;-75
2021/04/19 03:17:53;;;;;;;28.80;20.77;;;;;;;;;;5036059;28;20237;-76
2021/04/19 03:20:19;;;;;;;25.87;18.63;;;;;;;;;;5052362;28;20308;-76
2021/04/19 03:22:49;;;;;;;26.53;20.77;;;;;;;;;;5052074;28;20213;-76
2021/04/19 03:25:15;;;;;;;26.20;19.60;;;;;;;;;;5052571;28;20196;-76
2021/04/19 03:27:41;;;;;;;25.97;20.00;;;;;;;;;;5052086;28;20720;-76
2021/04/19 03:30:08;;;;;;;24.13;19.87;;;;;;;;;;5051408;28;20199;-75
2021/04/19 03:32:36;;;;;;;22.37;19.70;;;;;;;;;;5052044;28;20240;-75
2021/04/19 03:35:03;;;;;;;23.60;19.50;;;;;;;;;;5052256;28;20190;-75
2021/04/19 03:37:30;;;;;;;22.57;19.83;;;;;;;;;;5052407;28;20182;-75
2021/04/19 03:40:01;;;;;;;21.00;18.77;;;;;;;;;;5051823;28;20288;-76
2021/04/19 03:42:26;;;;;;;23.37;19.57;;;;;;;;;;5052053;28;20205;-76
2021/04/19 03:44:52;;;;;;;23.10;18.53;;;;;;;;;;5053261;28;20178;-76
2021/04/19 03:47:19;;;;;;;23.80;20.00;;;;;;;;;;5051171;28;20219;-75
2021/04/19 03:49:48;;;;;;;24.77;19.27;;;;;;;;;;5052151;28;20193;-77
2021/04/19 03:52:15;;;;;;;22.27;19.60;;;;;;;;;;5051471;28;20214;-74
2021/04/19 03:54:42;;;;;;;25.57;19.67;;;;;;;;;;5052072;28;20189;-76
2021/04/19 03:57:08;;;;;;;21.93;18.67;;;;;;;;;;5051831;28;20354;-76
2021/04/19 03:59:35;;;;;;;21.77;17.87;;;;;;;;;;5051886;28;20703;-75
2021/04/19 04:02:01;;;;;;;22.93;18.63;;;;;;;;;;5035270;28;20684;-77
2021/04/19 04:04:27;;;;;;;20.67;17.63;;;;;;;;;;5035455;28;20273;-74
2021/04/19 04:06:53;;;;;;;20.40;16.30;;;;;;;;;;5051622;28;20312;-76
2021/04/19 04:09:19;;;;;;;18.87;16.17;;;;;;;;;;5051768;28;20307;-76
2021/04/19 04:11:45;;;;;;;19.73;15.83;;;;;;;;;;5051348;28;20175;-76
2021/04/19 04:14:11;;;;;;;20.47;15.37;;;;;;;;;;5035116;28;20569;-75
2021/04/19 04:16:40;;;;;;;20.23;15.93;;;;;;;;;;5034978;28;20178;-77
2021/04/19 04:19:06;;;;;;;18.97;15.00;;;;;;;;;;5052534;28;20626;-76
2021/04/19 04:21:32;;;;;;;19.03;15.23;;;;;;;;;;5051009;28;20262;-75
2021/04/19 04:23:58;;;;;;;18.47;15.67;;;;;;;;;;5051403;28;20182;-74
2021/04/19 04:26:24;;;;;;;17.97;15.07;;;;;;;;;;5051228;28;20174;-74
2021/04/19 04:28:50;;;;;;;17.03;14.20;;;;;;;;;;5051158;28;20221;-76
2021/04/19 04:31:16;;;;;;;18.20;14.50;;;;;;;;;;5050953;28;20605;-76
2021/04/19 04:33:42;;;;;;;19.40;14.87;;;;;;;;;;5051269;28;20596;-76
2021/04/19 04:36:08;;;;;;;16.83;14.53;;;;;;;;;;5051308;28;20174;-76
2021/04/19 04:38:34;;;;;;;20.87;15.30;;;;;;;;;;5050983;28;20202;-76
2021/04/19 04:41:00;;;;;;;19.60;15.87;;;;;;;;;;5051822;28;20720;-76
2021/04/19 04:43:27;;;;;;;21.60;16.53;;;;;;;;;;5047555;28;20678;-76
2021/04/19 04:45:58;;;;;;;19.93;16.47;;;;;;;;;;5039713;28;20205;-75
2021/04/19 04:48:27;;;;;;;19.80;16.80;;;;;;;;;;5050791;28;20202;-75
2021/04/19 04:51:17;;;;;;;20.70;16.33;;;;;;;;;;5052188;28;20193;-72
2021/04/19 04:53:50;;;;;;;19.63;16.87;;;;;;;;;;5045490;28;20186;-73
2021/04/19 04:56:15;;;;;;;22.30;16.47;;;;;;;;;;5050858;28;20243;-72
2021/04/19 04:58:43;;;;;;;21.37;17.10;;;;;;;;;;5050487;28;20728;-74
2021/04/19 05:01:09;;;;;;;20.90;16.50;;;;;;;;;;5051976;28;20181;-75
2021/04/19 05:03:36;;;;;;;20.13;15.90;;;;;;;;;;5050814;28;20352;-75
2021/04/19 05:06:02;;;;;;;19.23;15.13;;;;;;;;;;5050527;28;20650;-74
2021/04/19 05:08:28;;;;;;;18.60;14.87;;;;;;;;;;5050670;28;20196;-75
2021/04/19 05:10:56;;;;;;;18.30;13.60;;;;;;;;;;5034029;28;20627;-74
2021/04/19 05:13:22;;;;;;;15.93;12.93;;;;;;;;;;5050756;28;20654;-75
2021/04/19 05:15:49;;;;;;;16.33;13.00;;;;;;;;;;5034545;28;20174;-77
2021/04/19 05:18:15;;;;;;;14.33;11.70;;;;;;;;;;5033922;28;20210;-73
2021/04/19 05:20:41;;;;;;;13.63;11.27;;;;;;;;;;5051965;28;20198;-73
2021/04/19 05:23:07;;;;;;;15.60;12.23;;;;;;;;;;5050681;28;20206;-75
2021/04/19 05:25:34;;;;;;;13.50;11.30;;;;;;;;;;5052020;28;20178;-74
2021/04/19 05:28:00;;;;;;;13.77;10.43;;;;;;;;;;5051877;28;20174;-74
2021/04/19 05:30:26;;;;;;;15.03;11.30;;;;;;;;;;5034254;28;20240;-73
2021/04/19 05:32:52;;;;;;;14.60;11.27;;;;;;;;;;5033918;28;20189;-74
2021/04/19 05:35:18;;;;;;;14.13;10.60;;;;;;;;;;5050478;28;20186;-73
2021/04/19 05:37:45;;;;;;;12.80;10.20;;;;;;;;;;5049582;28;20182;-74
2021/04/19 05:40:12;;;;;;;13.07;11.07;;;;;;;;;;5050088;28;20227;-74
2021/04/19 05:42:37;;;;;;;12.57;10.73;;;;;;;;;;5050179;28;20347;-75
2021/04/19 05:45:04;;;;;;;11.30;9.50;;;;;;;;;;5051604;28;20661;-74
2021/04/19 05:47:30;;;;;;;13.23;10.47;;;;;;;;;;5033451;28;20564;-76
2021/04/19 05:49:56;;;;;;;11.67;9.93;;;;;;;;;;5033497;28;20197;-74
2021/04/19 05:52:24;;;;;;;13.70;10.47;;;;;;;;;;5033532;28;20299;-73
2021/04/19 05:54:49;;;;;;;10.70;9.47;;;;;;;;;;5040529;28;20206;-74
2021/04/19 05:57:28;;;;;;;12.27;9.50;;;;;;;;;;5038936;28;20658;-72
2021/04/19 05:59:57;;;;;;;13.23;9.37;;;;;;;;;;5041534;28;20205;-73
2021/04/19 06:02:29;;;;;;;11.10;9.83;;;;;;;;;;5040624;28;20290;-71
2021/04/19 06:04:55;;;;;;;10.70;8.97;;;;;;;;;;5036856;28;20224;-71
2021/04/19 06:07:28;;;;;;;10.47;9.20;;;;;;;;;;5034053;28;20574;-73
2021/04/19 06:09:58;;;;;;;12.03;9.13;;;;;;;;;;5038476;28;20286;-72
2021/04/19 06:12:25;;;;;;;10.63;8.90;;;;;;;;;;5047966;28;20183;-71
2021/04/19 06:14:51;;;;;;;9.87;8.30;;;;;;;;;;5042755;28;20193;-72
2021/04/19 06:17:18;;;;;;;10.20;9.00;;;;;;;;;;5041588;28;20208;-71
2021/04/19 06:19:45;;;;;;;10.13;8.87;;;;;;;;;;5026749;28;20681;-72
2021/04/19 06:22:15;;;;;;;10.27;9.17;;;;;;;;;;5039192;28;20288;-74
2021/04/19 06:24:44;;;;;;;10.93;8.60;;;;;;;;;;5065861;28;20922;-72
2021/04/19 06:27:10;;;;;;;11.00;8.77;;;;;;;;;;5043442;28;20186;-73
2021/04/19 06:29:36;;;;;;;11.43;9.80;;;;;;;;;;5036411;28;20206;-72
2021/04/19 06:32:02;;;;;;;12.07;9.87;;;;;;;;;;5054463;28;20186;-71
2021/04/19 06:34:28;;;;;;;11.20;9.40;;;;;;;;;;5051670;28;20237;-72
2021/04/19 06:36:54;;;;;;;12.30;8.90;;;;;;;;;;5048683;28;20187;-72
2021/04/19 06:39:20;;;;;;;13.30;9.03;;;;;;;;;;5033659;28;20306;-72
2021/04/19 06:41:46;;;;;;;12.77;9.53;;;;;;;;;;5038321;28;20260;-72
2021/04/19 06:44:15;;;;;;;10.20;9.10;;;;;;;;;;5033180;28;20191;-70
2021/04/19 06:46:44;;;;;;;11.13;8.80;;;;;;;;;;5033470;28;20185;-72
2021/04/19 06:49:12;;;;;;;11.07;9.23;;;;;;;;;;5052228;28;20201;-72
2021/04/19 06:51:38;;;;;;;9.07;8.00;;;;;;;;;;5036621;28;20648;-72
2021/04/19 06:54:05;;;;;;;9.43;8.37;;;;;;;;;;5052370;28;20293;-72
2021/04/19 06:56:37;;;;;;;11.50;8.50;;;;;;;;;;5054291;28;20675;-72
2021/04/19 06:59:04;;;;;;;11.43;8.77;;;;;;;;;;5052861;28;20277;-70
2021/04/19 07:01:30;;;;;;;10.40;9.30;;;;;;;;;;5052852;28;20679;-72
2021/04/19 07:03:57;;;;;;;11.07;9.13;;;;;;;;;;5053014;28;20173;-73
2021/04/19 07:06:27;;;;;;;11.53;9.00;;;;;;;;;;5053965;28;20224;-72
2021/04/19 07:08:52;;;;;;;11.97;9.67;;;;;;;;;;5054697;28;20186;-72
2021/04/19 07:11:20;;;;;;;11.80;9.83;;;;;;;;;;5045342;28;20236;-73
2021/04/19 07:13:46;;;;;;;13.53;11.70;;;;;;;;;;5041076;28;20189;-74
2021/04/19 07:16:12;;;;;;;14.77;12.70;;;;;;;;;;5054494;28;20238;-75
2021/04/19 07:18:39;;;;;;;17.23;13.63;;;;;;;;;;5050359;28;20220;-75
2021/04/19 07:21:05;;;;;;;17.53;13.67;;;;;;;;;;5053544;28;20196;-75
2021/04/19 07:23:31;;;;;;;18.00;14.00;;;;;;;;;;5052572;28;20199;-73
2021/04/19 07:25:58;;;;;;;17.60;14.53;;;;;;;;;;5052232;28;20675;-74
2021/04/19 07:28:24;;;;;;;20.10;15.60;;;;;;;;;;5036027;28;20204;-74
2021/04/19 07:31:00;;;;;;;19.33;15.00;;;;;;;;;;5047652;28;20193;-74
2021/04/19 07:33:26;;;;;;;17.23;15.23;;;;;;;;;;5041128;28;20214;-74
2021/04/19 07:35:52;;;;;;;16.57;14.43;;;;;;;;;;5041363;28;20188;-75
2021/04/19 07:38:29;;;;;;;21.40;16.37;;;;;;;;;;5031863;28;20211;-75
2021/04/19 07:40:55;;;;;;;19.63;15.97;;;;;;;;;;5038964;28;20179;-75
2021/04/19 07:43:24;;;;;;;18.87;15.70;;;;;;;;;;5031626;28;20208;-75
2021/04/19 07:45:59;;;;;;;19.97;16.80;;;;;;;;;;5042919;28;20182;-74
2021/04/19 07:48:28;;;;;;;18.37;15.40;;;;;;;;;;5042820;28;20697;-74
2021/04/19 07:50:54;;;;;;;19.03;15.93;;;;;;;;;;5031725;28;20175;-76
2021/04/19 07:53:20;;;;;;;19.47;15.63;;;;;;;;;;5028290;28;20192;-74
2021/04/19 07:55:49;;;;;;;18.33;15.73;;;;;;;;;;5033418;28;20192;-75
2021/04/19 07:58:25;;;;;;;20.27;15.60;;;;;;;;;;5015870;28;20212;-75
2021/04/19 08:00:51;;;;;;;22.00;17.07;;;;;;;;;;5032387;28;20242;-76
2021/04/19 08:03:20;;;;;;;20.47;16.63;;;;;;;;;;5032097;28;20202;-77
2021/04/19 08:05:48;;;;;;;21.50;17.67;;;;;;;;;;5032110;28;20177;-76
2021/04/19 08:08:14;;;;;;;22.67;18.40;;;;;;;;;;5015519;28;20182;-74
2021/04/19 08:10:41;;;;;;;21.27;17.50;;;;;;;;;;5053824;28;20644;-74
2021/04/19 08:13:07;;;;;;;20.10;16.93;;;;;;;;;;5071600;28;20179;-74
2021/04/19 08:15:34;;;;;;;34.50;26.30;;;;;;;;;;5057807;28;20244;-74
2021/04/19 08:18:10;;;;;;;24.60;19.53;;;;;;;;;;5015158;28;20648;-74
2021/04/19 08:20:36;;;;;;;22.80;17.27;;;;;;;;;;5031726;28;20180;-75
2021/04/19 08:23:06;;;;;;;20.27;16.63;;;;;;;;;;5034088;28;20217;-74
2021/04/19 08:25:35;;;;;;;21.77;16.53;;;;;;;;;;5051579;28;20180;-73
2021/04/19 08:28:02;;;;;;;20.63;16.83;;;;;;;;;;5051185;28;20731;-75
2021/04/19 08:30:28;;;;;;;18.53;16.40;;;;;;;;;;5035104;28;20185;-75
2021/04/19 08:32:54;;;;;;;20.90;16.73;;;;;;;;;;5034199;28;20789;-75
2021/04/19 08:35:20;;;;;;;21.60;15.97;;;;;;;;;;5039679;28;20186;-74
2021/04/19 08:37:46;;;;;;;21.10;16.83;;;;;;;;;;5041243;28;20560;-75
2021/04/19 08:40:13;;;;;;;23.37;17.47;;;;;;;;;;5028034;28;20196;-74
2021/04/19 08:42:39;;;;;;;21.53;17.50;;;;;;;;;;5034363;28;20222;-75
2021/04/19 08:45:06;;;;;;;21.90;17.60;;;;;;;;;;5042246;28;20720;-75
2021/04/19 08:47:33;;;;;;;22.77;16.97;;;;;;;;;;5044509;28;20228;-74
2021/04/19 08:49:59;;;;;;;20.23;16.07;;;;;;;;;;5039231;28;20195;-75
2021/04/19 08:52:25;;;;;;;22.07;16.80;;;;;;;;;;5025777;28;20186;-74
2021/04/19 08:54:52;;;;;;;20.00;16.00;;;;;;;;;;5052125;28;20190;-74
2021/04/19 08:57:18;;;;;;;20.53;15.70;;;;;;;;;;5050912;28;20236;-74
2021/04/19 08:59:44;;;;;;;21.67;16.10;;;;;;;;;;5050846;28;20242;-75
2021/04/19 09:02:10;;;;;;;20.23;16.03;;;;;;;;;;5050837;28;20213;-74
2021/04/19 09:04:36;;;;;;;18.97;16.17;;;;;;;;;;5050857;28;20178;-75
2021/04/19 09:07:03;;;;;;;21.40;16.00;;;;;;;;;;5039234;28;20171;-75
2021/04/19 09:09:31;;;;;;;19.03;15.17;;;;;;;;;;5058779;28;20190;-74
2021/04/19 09:12:10;;;;;;;18.90;15.40;;;;;;;;;;5036016;28;20190;-73
2021/04/19 09:14:36;;;;;;;29.53;22.63;;;;;;;;;;5047683;28;20714;-75
2021/04/19 09:17:02;;;;;;;19.13;16.33;;;;;;;;;;5051667;28;20186;-75
2021/04/19 09:19:31;;;;;;;21.23;16.27;;;13.80;99.90;;;;;;5049932;28;20255;-75
2021/04/19 09:22:10;;;;;;;20.07;17.03;;;13.80;99.90;;;;;;5036871;28;20237;-74
2021/04/19 09:25:05;;;;;;;22.63;16.70;;;13.60;99.90;;;;;;5012741;28;20182;-75
2021/04/19 09:27:56;;;;;;;20.53;15.80;;;13.60;99.90;;;;;;5042873;28;20556;-75
2021/04/19 09:30:26;;;;;;;19.20;15.30;;;13.60;99.90;;;;;;5027903;28;20171;-74
2021/04/19 09:33:06;;;;;;;20.07;14.23;;;13.50;99.90;;;;;;5049395;28;20181;-75
2021/04/19 09:38:11;;;;;;;16.03;13.30;;;13.70;99.90;;;;;;5040976;28;20235;-75
2021/04/19 09:40:49;;;;;;;15.20;11.70;;;14.40;99.90;;;;;;5020386;28;20179;-74
2021/04/19 09:43:33;;;;;;;17.83;13.53;;;15.20;99.90;;;;;;5038853;28;20218;-73
2021/04/19 09:46:22;;;;;;;20.87;15.97;;;15.50;99.90;;;;;;5038836;28;20175;-74
2021/04/19 09:48:47;;;;;;;20.73;16.00;;;15.90;99.90;;;;;;5014459;28;20277;-74
2021/04/19 09:51:16;;;;;;;22.17;14.53;;;17.00;99.90;;;;;;5042530;28;20700;-74
2021/04/19 09:53:54;;;;;;;16.50;12.60;;;16.20;99.90;;;;;;5017739;28;20646;-74
2021/04/19 09:56:28;;;;;;;16.10;13.03;;;15.20;99.90;;;;;;5045161;28;20328;-73
2021/04/19 09:58:53;;;;;;;18.47;13.87;;;15.10;99.90;;;;;;5049987;28;20588;-75
2021/04/19 10:01:20;;;;;;;18.57;13.67;;;15.00;99.90;;;;;;5047083;28;20193;-74
2021/04/19 10:03:53;;;;;;;17.87;14.40;;;;;;;;;;5033779;28;20219;-73
2021/04/19 10:06:21;;;;;;;20.63;16.07;;;;;;;;;;5035743;28;20183;-73
2021/04/19 10:08:48;;;;;;;20.47;15.10;;;;;;;;;;5051558;28;20577;-74
2021/04/19 10:11:14;;;;;;;18.50;15.23;;;;;;;;;;5054320;28;20182;-73
2021/04/19 10:13:40;;;;;;;19.30;14.00;;;;;;;;;;5054068;28;20257;-75
2021/04/19 10:16:10;;;;;;;17.37;13.13;;;;;;;;;;5053820;28;20186;-75
2021/04/19 10:18:38;;;;;;;19.33;14.20;;;;;;;;;;5036554;28;20247;-75
2021/04/19 10:21:04;;;;;;;17.77;14.13;;;14.50;99.90;;;;;;5061272;28;20177;-75
2021/04/19 10:23:39;;;;;;;18.27;14.17;;;14.80;99.90;;;;;;5037691;28;20211;-73
2021/04/19 10:26:04;;;;;;;19.10;15.50;;;14.80;99.90;;;;;;5021333;28;20176;-72
2021/04/19 10:28:34;;;;;;;17.90;13.67;;;;;;;;;;5053467;28;20198;-73
2021/04/19 10:31:10;;;;;;;17.70;14.07;;;;;;;;;;5055037;28;20182;-73
2021/04/19 10:33:37;;;;;;;14.67;11.83;;;;;;;;;;5064579;28;20181;-75
2021/04/19 10:36:10;;;;;;;15.63;12.03;;;;;;;;;;5020547;28;20183;-75
2021/04/19 10:38:37;;;;;;;13.97;11.33;;;;;;;;;;5033697;28;20202;-75
2021/04/19 10:41:04;;;;;;;13.33;11.07;;;;;;;;;;5046605;28;20185;-75
2021/04/19 10:43:30;;;;;;;15.23;12.07;;;;;;;;;;5046889;28;20283;-76
2021/04/19 10:45:56;;;;;;;14.67;12.17;;;;;;;;;;5057628;28;20648;-76
2021/04/19 10:48:27;;;;;;;14.83;11.80;;;;;;;;;;5024317;28;20239;-75
2021/04/19 10:50:55;;;;;;;16.13;12.57;;;;;;;;;;5044949;28;20201;-76
2021/04/19 10:53:38;;;;;;;16.13;12.83;;;;;;;;;;5033313;28;20219;-75
2021/04/19 10:56:04;;;;;;;14.40;11.17;;;;;;;;;;5018948;28;20209;-75
2021/04/19 10:58:31;;;;;;;14.13;11.10;;;;;;;;;;5049315;28;20260;-76
2021/04/19 11:00:58;;;;;;;11.80;10.50;;;;;;;;;;5051316;28;20190;-75
2021/04/19 11:03:32;;;;;;;12.83;9.83;;;;;;;;;;5052670;28;20247;-75
2021/04/19 11:06:01;;;;;;;14.33;11.67;;;;;;;;;;5051816;28;20672;-76
2021/04/19 11:08:48;;;;;;;13.93;11.10;;;;;;;;;;5041915;28;21492;-75
2021/04/19 11:11:32;;;;;;;12.87;10.90;;;;;;;;;;5053827;28;20182;-75
2021/04/19 11:14:33;;;;;;;16.03;12.07;;;15.10;99.90;;;;;;5054074;28;20183;-75
2021/04/19 11:17:00;;;;;;;15.63;12.50;;;15.10;99.90;;;;;;5027622;28;20422;-75
2021/04/19 11:19:33;;;;;;;14.57;11.93;;;15.30;99.90;;;;;;5036049;28;20229;-75
2021/04/19 11:21:59;;;;;;;15.80;11.50;;;15.50;99.90;;;;;;5052589;28;20178;-74
2021/04/19 11:24:36;;;;;;;13.57;11.10;;;15.80;99.90;;;;;;5034503;28;20167;-73
2021/04/19 11:27:09;;;;;;;14.63;11.70;;;16.10;99.90;;;;;;5032403;28;20704;-74
2021/04/19 11:29:41;;;;;;;14.87;11.30;;;16.20;99.90;;;;;;5045336;28;20324;-74
2021/04/19 11:32:34;;;;;;;12.93;9.83;;;16.20;99.90;;;;;;5036662;28;20182;-74
2021/04/19 11:35:03;;;;;;;12.23;10.27;;;16.30;99.90;;;;;;5052595;28;20182;-73
2021/04/19 11:37:35;;;;;;;13.60;10.20;;;16.60;99.90;;;;;;5035821;28;20245;-74
2021/04/19 11:40:22;;;;;;;13.33;11.33;;;16.80;99.90;;;;;;5053483;28;20198;-74
2021/04/19 11:42:48;;;;;;;14.00;10.93;;;16.70;99.90;;;;;;5044955;28;20218;-74
2021/04/19 11:45:19;;;;;;;16.17;12.17;;;16.30;99.90;;;;;;5035703;28;20635;-79
2021/04/19 11:47:45;;;;;;;12.80;10.80;;;16.20;99.90;;;;;;5052173;28;20179;-74
2021/04/19 11:50:11;;;;;;;14.03;11.00;;;16.10;99.90;;;;;;5036267;28;20284;-74
2021/04/19 11:52:46;;;;;;;15.10;11.57;;;16.20;99.90;;;;;;5033847;28;20186;-74
2021/04/19 11:55:14;;;;;;;13.93;10.67;;;16.20;99.90;;;;;;5032415;28;20214;-74
2021/04/19 11:57:41;;;;;;;13.57;11.47;;;16.30;99.90;;;;;;5032225;28;20175;-74
2021/04/19 12:00:17;;;;;;;13.27;10.83;;;16.20;99.90;;;;;;5031933;28;20575;-74
2021/04/19 12:02:43;;;;;;;14.10;11.40;;;16.40;99.90;;;;;;5035802;28;20201;-74
2021/04/19 12:05:09;;;;;;;15.17;11.90;;;16.30;99.90;;;;;;5033496;28;20712;-74
2021/04/19 12:07:35;;;;;;;14.40;11.50;;;16.50;99.90;;;;;;5033281;28;20205;-73
2021/04/19 12:10:00;;;;;;;16.13;12.47;;;16.90;99.90;;;;;;5048198;28;20194;-73
2021/04/19 12:12:26;;;;;;;14.73;11.73;;;17.10;99.90;;;;;;5051871;28;20186;-74
2021/04/19 12:14:52;;;;;;;13.97;11.07;;;16.90;99.90;;;;;;5047229;28;20216;-73
2021/04/19 12:17:18;;;;;;;14.30;11.57;;;16.10;99.90;;;;;;5051467;28;20209;-74
2021/04/19 12:19:43;;;;;;;13.70;11.20;;;15.70;99.90;;;;;;5051317;28;20249;-77
2021/04/19 12:22:09;;;;;;;14.37;11.53;;;15.30;99.90;;;;;;5015584;28;20198;-74
2021/04/19 12:24:35;;;;;;;13.77;10.93;;;15.10;99.90;;;;;;5035279;28;20301;-72
2021/04/19 12:27:01;;;;;;;14.47;10.53;;;14.80;99.90;;;;;;5035534;28;20273;-73
2021/04/19 12:29:26;;;;;;;13.17;10.63;;;14.70;99.90;;;;;;5050139;28;20285;-75
2021/04/19 12:31:52;;;;;;;12.00;9.60;;;14.60;99.90;;;;;;5034857;28;20181;-75
2021/04/19 12:34:17;;;;;;;12.93;10.27;;;14.50;99.90;;;;;;5048981;28;20646;-73
2021/04/19 12:36:43;;;;;;;14.03;9.77;;;14.50;99.90;;;;;;5052506;28;20179;-74
2021/04/19 12:39:08;;;;;;;12.57;10.27;;;14.70;99.90;;;;;;5028526;28;20203;-73
2021/04/19 12:41:34;;;;;;;12.93;9.80;;;15.00;99.90;;;;;;5034673;28;20177;-74
2021/04/19 12:44:00;;;;;;;12.77;10.03;;;15.40;99.90;;;;;;5034467;28;20577;-74
2021/04/19 12:46:27;;;;;;;11.83;9.33;;;15.60;99.90;;;;;;5042746;28;20186;-73
2021/04/19 12:48:54;;;;;;;12.13;8.93;;;15.70;99.90;;;;;;5026539;28;20196;-76
2021/04/19 12:51:21;;;;;;;12.67;9.53;;;15.90;99.90;;;;;;5051044;28;20202;-75
2021/04/19 12:53:46;;;;;;;10.30;8.80;;;16.40;99.90;;;;;;5050853;28;20189;-75
2021/04/19 12:56:12;;;;;;;11.67;8.70;;;16.70;99.90;;;;;;5032817;28;20190;-75
2021/04/19 12:58:41;;;;;;;10.57;9.23;;;16.90;99.90;;;;;;5049100;28;20202;-75
2021/04/19 13:01:07;;;;;;;12.23;9.93;;;16.80;99.90;;;;;;5035515;28;20182;-75
2021/04/19 13:03:33;;;;;;;12.17;10.47;;;16.40;99.90;;;;;;5032790;28;20203;-73
2021/04/19 13:05:58;;;;;;;14.33;11.00;;;16.20;99.90;;;;;;5051098;28;20205;-73
2021/04/19 13:08:24;;;;;;;12.40;9.63;;;15.70;99.90;;;;;;5031531;28;20233;-73
2021/04/19 13:10:49;;;;;;;11.80;9.23;;;15.60;99.90;;;;;;5049161;28;20640;-74
2021/04/19 13:13:15;;;;;;;13.33;10.00;;;15.40;99.90;;;;;;5050521;28;20190;-73
2021/04/19 13:15:40;;;;;;;11.90;9.23;;;15.20;99.90;;;;;;5051022;28;20186;-74
2021/04/19 13:18:06;;;;;;;12.63;9.50;;;15.10;99.90;;;;;;5048110;28;20178;-73
2021/04/19 13:20:32;;;;;;;11.00;8.50;;;14.90;99.90;;;;;;5014282;28;20187;-73
2021/04/19 13:22:58;;;;;;;12.20;9.70;;;14.90;99.90;;;;;;5036553;28;20195;-73
2021/04/19 13:25:24;;;;;;;11.40;9.20;;;14.90;99.90;;;;;;5034053;28;20231;-73
2021/04/19 13:27:49;;;;;;;13.00;8.73;;;15.00;99.90;;;;;;5049511;28;20673;-73
2021/04/19 13:30:15;;;;;;;12.83;9.27;;;15.00;99.90;;;;;;5046704;28;20202;-74
2021/04/19 13:32:41;;;;;;;11.37;9.00;;;15.10;99.90;;;;;;5012201;28;20443;-73
2021/04/19 13:35:08;;;;;;;11.13;8.77;;;15.30;99.90;;;;;;5020125;28;20657;-73
2021/04/19 13:37:34;;;;;;;11.23;9.07;;;15.30;99.90;;;;;;5050512;28;20194;-73
2021/04/19 13:39:59;;;;;;;11.83;9.80;;;15.50;99.90;;;;;;5050234;28;20206;-73
2021/04/19 13:42:25;;;;;;;16.13;11.37;;;15.70;99.90;;;;;;5050029;28;20233;-73
2021/04/19 13:44:50;;;;;;;14.60;11.10;;;15.80;99.90;;;;;;5030818;28;20205;-72
2021/04/19 13:47:16;;;;;;;16.00;12.87;;;15.70;99.90;;;;;;5050395;28;20710;-73
2021/04/19 13:49:41;;;;;;;13.73;10.93;;;15.70;99.90;;;;;;5033522;28;20780;-73
2021/04/19 13:52:07;;;;;;;15.47;12.40;;;15.60;99.90;;;;;;5032886;28;20661;-73
2021/04/19 13:54:32;;;;;;;15.73;11.80;;;15.50;99.90;;;;;;5033751;28;20581;-73
2021/04/19 13:56:58;;;;;;;17.37;12.27;;;15.50;99.90;;;;;;5029954;28;20176;-73